Time;durP1;ratioP1;P1;durP2;ratioP2;P2;SDS_P1;SDS_P2;PMS_P1;PMS_P2;Temp;Humidity;BMP_temperature;BMP_pressure;BME280_temperature;BME280_humidity;BME280_pressure;Samples;Min_cycle;Max_cycle;Signal;HPM_P1;HPM_P2
2022/09/27 00:01:01;;;;;;;8.55;1.10;;;;;;;13.89;64.09;99582.41;4991305;28;114038;-63
2022/09/27 00:03:28;;;;;;;10.55;1.40;;;;;;;13.87;64.01;99581.66;4989084;28;124019;-63
2022/09/27 00:06:07;;;;;;;9.85;1.60;;;;;;;13.83;64.21;99581.06;4986858;28;124248;-63
2022/09/27 00:08:35;;;;;;;9.35;1.35;;;;;;;13.82;64.26;99580.22;4988900;28;114259;-63
2022/09/27 00:11:05;;;;;;;5.22;1.40;;;;;;;13.82;64.19;99585.56;4989601;28;113686;-62
2022/09/27 00:13:32;;;;;;;6.35;1.40;;;;;;;13.81;64.12;99589.16;4990372;28;123816;-62
2022/09/27 00:16:05;;;;;;;6.75;1.20;;;;;;;13.80;64.31;99592.78;4980483;28;122757;-62
2022/09/27 00:18:33;;;;;;;7.60;1.45;;;;;;;13.81;64.16;99599.81;4988819;28;114576;-62
2022/09/27 00:21:11;;;;;;;4.30;1.30;;;;;;;13.79;64.31;99596.44;4989744;28;114012;-62
2022/09/27 00:23:38;;;;;;;11.13;1.58;;;;;;;13.78;64.33;99605.34;4987632;28;123889;-63
2022/09/27 00:26:07;;;;;;;5.15;1.40;;;;;;;13.77;64.37;99603.69;4987362;28;124875;-62
2022/09/27 00:28:34;;;;;;;6.35;1.25;;;;;;;13.75;64.37;99594.97;4988497;28;114891;-63
2022/09/27 00:31:02;;;;;;;7.90;1.23;;;;;;;13.75;64.39;99610.94;4991636;28;114364;-63
2022/09/27 00:33:29;;;;;;;5.55;1.27;;;;;;;13.74;64.32;99614.56;4985188;28;123853;-63
2022/09/27 00:36:04;;;;;;;8.15;1.30;;;;;;;13.73;64.45;99610.22;4980769;28;122904;-63
2022/09/27 00:38:31;;;;;;;6.75;1.38;;;;;;;13.73;64.24;99615.53;4986755;28;115470;-63
2022/09/27 00:40:59;;;;;;;9.00;1.50;;;;;;;13.72;64.21;99616.50;4988659;28;115177;-63
2022/09/27 00:43:43;;;;;;;6.25;1.30;;;;;;;13.69;64.49;99611.41;4985288;28;122942;-64
2022/09/27 00:46:14;;;;;;;7.97;1.48;;;;;;;13.68;64.41;99615.03;4986955;28;124610;-63
2022/09/27 00:48:41;;;;;;;5.85;1.33;;;;;;;13.68;64.45;99612.38;4985545;28;114244;-63
2022/09/27 00:51:09;;;;;;;7.32;1.48;;;;;;;13.67;64.44;99618.66;4981765;28;112764;-63
2022/09/27 00:53:45;;;;;;;7.30;1.50;;;;;;;13.67;64.41;99617.81;4990090;28;123854;-63
2022/09/27 00:56:17;;;;;;;6.10;1.30;;;;;;;13.67;64.39;99621.31;4989563;28;122705;-63
2022/09/27 00:58:53;;;;;;;6.10;1.27;;;;;;;13.66;64.44;99611.66;4991589;28;113224;-63
2022/09/27 01:01:21;;;;;;;8.45;1.48;;;;;;;13.66;64.44;99619.63;5000987;28;113745;-63
2022/09/27 01:03:56;;;;;;;6.07;1.40;;;;;;;13.64;64.36;99613.59;4989239;28;123412;-63
2022/09/27 01:06:23;;;;;;;7.10;1.20;;;;;;;13.64;64.48;99608.28;4989402;28;123495;-63
2022/09/27 01:08:50;;;;;;;11.98;1.20;;;;;;;13.64;64.45;99613.59;4988115;28;114956;-63
2022/09/27 01:11:48;;;;;;;11.52;1.52;;;;;;;13.63;64.47;99617.19;4989555;28;114219;-62
2022/09/27 01:14:40;;;;;;;8.32;1.70;;;;;;;13.63;64.54;99619.88;4989457;28;124633;-62
2022/09/27 01:17:53;;;;;;;11.38;1.65;;;;;;;13.63;64.53;99622.53;4988612;28;123532;-63
2022/09/27 01:20:23;;;;;;;5.45;1.15;;;;;;;13.63;64.62;99627.84;4980956;28;114059;-62
2022/09/27 01:23:24;;;;;;;6.65;1.40;;;;;;;13.62;64.50;99620.84;4989461;28;113316;-62
2022/09/27 01:26:05;;;;;;;7.90;1.48;;;;;;;13.63;64.66;99627.84;4988686;28;123873;-62
2022/09/27 01:29:00;;;;;;;7.32;1.40;;;;;;;13.63;64.73;99622.53;4985483;28;97432;-62
2022/09/27 01:31:34;;;;;;;6.72;1.45;;;;;;;13.63;64.63;99619.88;5004794;28;114538;-62
2022/09/27 01:34:35;;;;;;;7.10;1.20;;;;;;;13.63;64.55;99615.38;4985226;28;116255;-63
2022/09/27 01:37:25;;;;;;;7.28;1.35;;;;;;;13.62;64.67;99616.38;4987469;28;123234;-62
2022/09/27 01:40:08;;;;;;;4.72;1.00;;;;;;;13.61;64.52;99622.63;4988183;28;123107;-61
2022/09/27 01:43:22;;;;;;;7.40;1.13;;;;;;;13.60;64.55;99625.44;4983188;28;114479;-62
2022/09/27 01:46:10;;;;;;;5.05;1.40;;;;;;;13.59;64.55;99631.72;4988627;28;113707;-62
2022/09/27 01:49:07;;;;;;;4.82;1.13;;;;;;;13.59;64.45;99631.72;4988468;28;124073;-62
2022/09/27 01:51:49;;;;;;;6.05;1.17;;;;;;;13.57;64.42;99633.66;4984116;28;123056;-62
2022/09/27 01:54:24;;;;;;;6.72;1.20;;;;;;;13.56;64.46;99631.94;4983981;28;114470;-62
2022/09/27 01:57:23;;;;;;;4.20;1.10;;;;;;;13.55;64.36;99631.09;4983733;28;113455;-62
2022/09/27 02:00:04;;;;;;;3.85;0.90;;;;;;;13.55;64.51;99624.94;4988106;28;123449;-62
2022/09/27 02:02:57;;;;;;;3.85;1.00;;;;;;;13.55;64.50;99640.91;4985572;28;124724;-62
2022/09/27 02:05:36;;;;;;;6.05;1.30;;;;;;;13.54;64.65;99639.19;4989071;28;114788;-62
2022/09/27 02:08:30;;;;;;;5.80;1.00;;;;;;;13.55;64.56;99635.59;4989373;28;114518;-63
2022/09/27 02:11:07;;;;;;;3.83;1.02;;;;;;;13.54;64.66;99633.88;4987284;28;124137;-63
2022/09/27 02:13:44;;;;;;;4.28;0.80;;;;;;;13.53;64.48;99634.84;4980452;28;124281;-62
2022/09/27 02:16:50;;;;;;;4.23;1.10;;;;;;;13.53;64.56;99642.84;4984219;28;115060;-62
2022/09/27 02:19:26;;;;;;;4.47;0.88;;;;;;;13.52;64.47;99641.97;4985580;28;114029;-63
2022/09/27 02:22:13;;;;;;;3.53;0.80;;;;;;;13.52;64.63;99641.97;4958809;28;123700;-63
2022/09/27 02:24:58;;;;;;;6.75;1.10;;;;;;;13.50;64.46;99649.22;4988024;28;122975;-63
2022/09/27 02:27:39;;;;;;;5.63;0.98;;;;;;;13.52;64.57;99649.09;5004351;28;114358;-63
2022/09/27 02:30:13;;;;;;;5.13;0.90;;;;;;;13.52;64.39;99651.75;4983004;28;114581;-63
2022/09/27 02:32:43;;;;;;;5.65;0.85;;;;;;;13.52;64.41;99641.97;4988375;28;123280;-63
2022/09/27 02:35:23;;;;;;;4.50;1.00;;;;;;;13.54;64.65;99644.50;4979318;28;123867;-63
2022/09/27 02:37:51;;;;;;;1.88;0.70;;;;;;;13.52;64.37;99646.44;4988762;28;113349;-62
2022/09/27 02:40:18;;;;;;;4.18;1.08;;;;;;;13.51;64.39;99645.59;4983354;28;112888;-62
2022/09/27 02:42:46;;;;;;;6.35;1.20;;;;;;;13.52;64.47;99641.13;4988405;28;123166;-62
2022/09/27 02:45:16;;;;;;;5.55;1.00;;;;;;;13.49;64.37;99639.56;4983615;28;123915;-62
2022/09/27 02:47:50;;;;;;;6.60;1.00;;;;;;;13.49;64.33;99644.03;4982672;28;113403;-63
2022/09/27 02:50:48;;;;;;;12.85;1.35;;;;;;;13.47;64.42;99645.94;4971764;28;113510;-62
2022/09/27 02:53:40;;;;;;;6.85;1.05;;;;;;;13.47;64.26;99653.91;4984966;28;126699;-63
2022/09/27 02:56:56;;;;;;;7.93;0.90;;;;;;;13.43;64.22;99648.84;4987176;28;124850;-62
2022/09/27 03:00:06;;;;;;;8.77;1.10;;;;;;;13.41;64.30;99644.59;4988343;28;115090;-62
2022/09/27 03:03:20;;;;;;;7.10;1.00;;;;;;;13.39;64.30;99654.50;4999766;28;113587;-62
2022/09/27 03:06:03;;;;;;;3.53;0.80;;;;;;;13.38;64.37;99656.31;4981475;28;126417;-63
2022/09/27 03:08:31;;;;;;;8.38;1.17;;;;;;;13.38;64.27;99655.50;4988548;28;124289;-62
2022/09/27 03:10:58;;;;;;;7.45;1.02;;;;;;;13.39;64.30;99657.16;4979841;28;114105;-63
2022/09/27 03:13:26;;;;;;;5.30;1.23;;;;;;;13.36;64.22;99655.59;4990340;28;113448;-62
2022/09/27 03:15:55;;;;;;;6.22;1.17;;;;;;;13.34;64.13;99654.88;4988222;28;123724;-62
2022/09/27 03:18:48;;;;;;;5.22;1.00;;;;;;;13.31;64.07;99652.44;4990224;28;123102;-62
2022/09/27 03:21:50;;;;;;;7.55;1.30;;;;;;;13.28;64.02;99655.31;4969744;28;115762;-63
2022/09/27 03:24:17;;;;;;;4.07;1.02;;;;;;;13.26;63.96;99651.91;4984472;28;114454;-63
2022/09/27 03:26:44;;;;;;;7.65;1.10;;;;;;;13.24;64.18;99651.16;4990318;28;124391;-62
2022/09/27 03:29:14;;;;;;;3.80;0.90;;;;;;;13.21;63.80;99649.59;4990532;28;122999;-63
2022/09/27 03:31:45;;;;;;;4.45;1.10;;;;;;;13.21;64.13;99660.22;4980781;28;115922;-64
2022/09/27 03:34:26;;;;;;;4.75;0.95;;;;;;;13.18;63.95;99659.59;4980434;28;112958;-63
2022/09/27 03:36:53;;;;;;;6.13;1.13;;;;;;;13.17;64.06;99655.28;4990053;28;124135;-63
2022/09/27 03:39:20;;;;;;;9.32;1.40;;;;;;;13.16;64.04;99664.19;4990024;28;123252;-63
2022/09/27 03:41:47;;;;;;;6.75;1.00;;;;;;;13.14;63.90;99658.16;4989308;28;114372;-63
2022/09/27 03:44:14;;;;;;;6.38;1.20;;;;;;;13.13;63.95;99652.00;4980858;28;112912;-63
2022/09/27 03:46:42;;;;;;;5.10;1.20;;;;;;;13.12;63.89;99649.44;4985693;28;124365;-63
2022/09/27 03:49:09;;;;;;;5.63;0.80;;;;;;;13.10;63.76;99656.69;4985468;28;122781;-63
2022/09/27 03:51:36;;;;;;;6.97;0.98;;;;;;;13.10;63.83;99662.00;4982506;28;114103;-63
2022/09/27 03:54:03;;;;;;;3.42;0.90;;;;;;;13.08;63.89;99669.25;4989123;28;113906;-63
2022/09/27 03:56:30;;;;;;;5.82;1.27;;;;;;;13.05;63.94;99676.50;4986166;28;123240;-62
2022/09/27 03:58:58;;;;;;;6.93;1.15;;;;;;;13.03;63.81;99683.72;4983530;28;123792;-63
2022/09/27 04:01:27;;;;;;;8.05;1.13;;;;;;;13.00;63.72;99689.25;4984780;28;112986;-63
2022/09/27 04:04:05;;;;;;;6.05;1.00;;;;;;;12.98;63.82;99691.19;4992369;28;116700;-64
2022/09/27 04:06:37;;;;;;;4.93;0.82;;;;;;;12.97;63.79;99701.94;4979336;28;123424;-63
2022/09/27 04:09:04;;;;;;;8.65;1.30;;;;;;;12.95;63.78;99691.41;4963691;28;123136;-63
2022/09/27 04:11:51;;;;;;;4.05;1.13;;;;;;;12.92;63.71;99691.66;4990345;28;117007;-63
2022/09/27 04:14:19;;;;;;;5.13;1.13;;;;;;;12.90;63.78;99682.91;4990140;28;115258;-63
2022/09/27 04:17:06;;;;;;;8.82;1.08;;;;;;;12.87;63.64;99675.19;4989605;28;125837;-63
2022/09/27 04:19:52;;;;;;;4.35;1.20;;;;;;;12.84;63.82;99664.75;4988845;28;124774;-63
2022/09/27 04:22:19;;;;;;;8.82;1.27;;;;;;;12.82;63.67;99664.88;4972774;28;113852;-63
2022/09/27 04:24:46;;;;;;;7.20;1.48;;;;;;;12.81;63.85;99657.88;4982047;28;113681;-64
2022/09/27 04:27:23;;;;;;;6.38;1.00;;;;;;;12.81;63.92;99657.03;4987501;28;126658;-63
2022/09/27 04:29:51;;;;;;;7.72;1.25;;;;;;;12.81;63.76;99651.72;4981853;28;123481;-63
2022/09/27 04:32:47;;;;;;;5.53;1.20;;;;;;;12.81;63.75;99651.72;4990349;28;114349;-63
2022/09/27 04:38:29;;;;;;;4.60;0.90;;;;;;;12.80;63.71;99650.00;5005391;28;123767;-62
2022/09/27 04:40:56;;;;;;;3.97;1.00;;;;;;;12.80;63.64;99650.00;4987244;28;123216;-62
2022/09/27 04:43:24;;;;;;;4.25;0.98;;;;;;;12.81;63.54;99651.72;4982061;28;113164;-62
2022/09/27 04:45:52;;;;;;;4.68;0.85;;;;;;;12.80;63.62;99647.34;4981528;28;114015;-63
2022/09/27 04:48:21;;;;;;;2.33;0.60;;;;;;;12.80;63.42;99660.66;4987989;28;123895;-62
2022/09/27 04:50:56;;;;;;;4.25;0.65;;;;;;;12.79;63.18;99666.91;4990121;28;124297;-62
2022/09/27 04:53:23;;;;;;;4.15;0.90;;;;;;;12.78;63.34;99663.41;4987013;28;114285;-62
2022/09/27 04:55:53;;;;;;;2.92;0.63;;;;;;;12.77;63.23;99666.16;4989485;28;113430;-62
2022/09/27 04:58:21;;;;;;;3.72;0.60;;;;;;;12.76;63.02;99664.50;4981452;28;123346;-62
2022/09/27 05:00:54;;;;;;;4.97;0.65;;;;;;;12.73;63.13;99664.72;4988295;28;123489;-62
2022/09/27 05:03:49;;;;;;;2.78;0.55;;;;;;;12.69;63.00;99669.38;4988531;28;114470;-63
2022/09/27 05:06:16;;;;;;;2.65;0.75;;;;;;;12.68;63.00;99677.47;4989172;28;114128;-62
2022/09/27 05:08:44;;;;;;;2.83;0.68;;;;;;;12.65;62.99;99674.06;4989869;28;123642;-62
2022/09/27 05:11:17;;;;;;;3.05;0.70;;;;;;;12.63;63.07;99676.00;4986527;28;124594;-62
2022/09/27 05:14:04;;;;;;;2.65;0.75;;;;;;;12.61;62.87;99683.22;4990851;28;114852;-62
2022/09/27 05:16:39;;;;;;;1.70;0.68;;;;;;;12.60;62.96;99686.88;4978088;28;116128;-62
2022/09/27 05:19:28;;;;;;;4.05;0.70;;;;;;;12.60;63.09;99702.81;4988062;28;125631;-63
2022/09/27 05:22:09;;;;;;;2.97;0.70;;;;;;;12.59;63.16;99695.78;4988949;28;126003;-62
2022/09/27 05:24:37;;;;;;;2.63;0.60;;;;;;;12.58;63.05;99694.09;4978597;28;113407;-62
2022/09/27 05:27:07;;;;;;;3.25;0.80;;;;;;;12.58;63.05;99699.41;4987553;28;112688;-63
2022/09/27 05:29:34;;;;;;;3.35;1.05;;;;;;;12.58;62.95;99696.75;4976981;28;122863;-63
2022/09/27 05:32:09;;;;;;;5.05;0.90;;;;;;;12.59;63.21;99689.63;4972160;28;123354;-62
2022/09/27 05:34:36;;;;;;;2.83;0.68;;;;;;;12.60;63.14;99692.19;4987048;28;114415;-63
2022/09/27 05:37:03;;;;;;;3.28;0.90;;;;;;;12.59;63.18;99685.16;4988605;28;113263;-62
2022/09/27 05:39:36;;;;;;;2.47;0.77;;;;;;;12.60;63.21;99686.88;4985388;28;123587;-62
2022/09/27 05:42:06;;;;;;;3.85;0.70;;;;;;;12.60;63.14;99686.88;4982792;28;123072;-62
2022/09/27 05:44:34;;;;;;;4.85;0.68;;;;;;;12.60;63.28;99681.56;4971809;28;113439;-62
2022/09/27 05:47:04;;;;;;;4.55;0.80;;;;;;;12.61;63.16;99667.28;4986990;28;113612;-62
2022/09/27 05:49:33;;;;;;;2.33;0.70;;;;;;;12.61;63.26;99677.91;4986255;28;123834;-62
2022/09/27 05:52:03;;;;;;;2.38;0.68;;;;;;;12.62;63.16;99674.31;4989278;28;122933;-62
2022/09/27 05:54:31;;;;;;;3.47;0.90;;;;;;;12.62;63.06;99679.63;4987596;28;114833;-61
2022/09/27 05:56:59;;;;;;;5.13;0.90;;;;;;;12.62;63.26;99679.63;4973299;28;114055;-62
2022/09/27 05:59:46;;;;;;;1.95;0.65;;;;;;;12.62;63.13;99679.63;4988610;28;125445;-62
2022/09/27 06:02:19;;;;;;;2.13;0.57;;;;;;;12.64;63.16;99688.34;4987889;28;124695;-62
2022/09/27 06:05:06;;;;;;;3.72;0.85;;;;;;;12.64;63.49;99693.66;4988890;28;115412;-62
2022/09/27 06:07:58;;;;;;;3.50;0.60;;;;;;;12.63;63.28;99686.63;4990347;28;115235;-62
2022/09/27 06:10:31;;;;;;;3.22;0.75;;;;;;;12.64;63.22;99693.66;4971621;28;126456;-62
2022/09/27 06:13:08;;;;;;;1.25;0.50;;;;;;;12.65;63.31;99687.34;4981399;28;123550;-62
2022/09/27 06:15:42;;;;;;;2.50;0.70;;;;;;;12.66;63.23;99685.56;4986369;28;113395;-62
2022/09/27 06:18:12;;;;;;;2.45;0.70;;;;;;;12.66;63.36;99690.88;4990090;28;114263;-62
2022/09/27 06:20:41;;;;;;;3.22;0.60;;;;;;;12.66;63.11;99691.72;4988362;28;123024;-61
2022/09/27 06:23:11;;;;;;;2.90;0.70;;;;;;;12.66;63.24;99697.03;4988745;28;123989;-62
2022/09/27 06:25:40;;;;;;;3.05;0.73;;;;;;;12.69;63.18;99705.75;4984830;28;114436;-61
2022/09/27 06:28:19;;;;;;;3.20;0.65;;;;;;;12.69;63.20;99705.75;4981296;28;112105;-64
2022/09/27 06:30:49;;;;;;;2.20;0.70;;;;;;;12.73;63.17;99712.53;4987544;28;123217;-63
2022/09/27 06:33:28;;;;;;;1.35;0.65;;;;;;;12.75;63.27;99721.22;4986953;28;123161;-62
2022/09/27 06:36:03;;;;;;;1.63;0.68;;;;;;;12.77;63.24;99724.63;4985618;28;113497;-63
2022/09/27 06:38:31;;;;;;;2.67;0.57;;;;;;;12.79;63.14;99738.66;4983523;28;113198;-62
2022/09/27 06:41:11;;;;;;;2.35;0.80;;;;;;;12.81;63.38;99747.38;5004023;28;123111;-63
2022/09/27 06:43:51;;;;;;;2.55;0.75;;;;;;;12.85;63.28;99743.53;4988879;28;123512;-63
2022/09/27 06:46:30;;;;;;;1.58;0.70;;;;;;;12.86;63.24;99745.22;4989215;28;115743;-62
2022/09/27 06:49:24;;;;;;;4.43;0.82;;;;;;;12.88;63.24;99759.25;4993190;28;115857;-62
2022/09/27 06:51:53;;;;;;;3.55;0.90;;;;;;;12.90;63.27;99754.66;4983813;28;123638;-62
2022/09/27 06:54:21;;;;;;;4.70;0.95;;;;;;;12.92;63.25;99755.44;4991799;28;122868;-62
2022/09/27 06:56:48;;;;;;;5.30;1.27;;;;;;;12.93;63.22;99754.44;4991664;28;113130;-62
2022/09/27 07:02:20;;;;;;;4.97;1.25;;;;;;;12.97;63.38;99758.59;4988337;28;124569;-61
2022/09/27 07:05:11;;;;;;;4.93;1.20;;;;;;;12.99;63.60;99756.66;4992091;28;123479;-61
2022/09/27 07:07:49;;;;;;;1.77;0.90;;;;;;;13.02;63.41;99756.44;4992759;28;116735;-62
2022/09/27 07:10:17;;;;;;;2.30;0.63;;;;;;;13.07;63.35;99757.91;4978487;28;113360;-61
2022/09/27 07:12:47;;;;;;;2.13;0.90;;;;;;;13.09;63.28;99745.34;4990546;28;124077;-62
2022/09/27 07:15:15;;;;;;;2.03;0.65;;;;;;;13.11;63.45;99738.13;4977205;28;122984;-62
2022/09/27 07:17:43;;;;;;;3.17;0.70;;;;;;;13.13;63.43;99741.50;4992581;28;114240;-62
2022/09/27 07:20:10;;;;;;;2.08;0.70;;;;;;;13.14;63.29;99733.44;4990712;28;115174;-62
2022/09/27 07:22:40;;;;;;;2.97;0.73;;;;;;;13.16;63.25;99741.28;4975732;28;123487;-62
2022/09/27 07:25:08;;;;;;;1.70;0.95;;;;;;;13.16;63.21;99751.94;4991289;28;123359;-62
2022/09/27 07:27:37;;;;;;;1.70;0.90;;;;;;;13.18;63.20;99750.84;4992554;28;113385;-62
2022/09/27 07:30:07;;;;;;;3.35;1.00;;;;;;;13.20;63.29;99758.72;4978744;28;113107;-62
2022/09/27 07:32:35;;;;;;;4.47;1.15;;;;;;;13.22;63.25;99762.09;4975531;28;123474;-62
2022/09/27 07:35:06;;;;;;;2.28;1.10;;;;;;;13.24;63.22;99761.06;4990975;28;123163;-62
2022/09/27 07:37:34;;;;;;;4.40;1.23;;;;;;;13.26;63.35;99768.91;4989907;28;115128;-62
2022/09/27 07:40:08;;;;;;;3.45;1.23;;;;;;;13.28;63.39;99772.31;4992405;28;114758;-62
2022/09/27 07:42:42;;;;;;;3.75;1.38;;;;;;;13.32;63.39;99779.13;4995903;28;123282;-63
2022/09/27 07:45:10;;;;;;;4.75;1.38;;;;;;;13.38;63.50;99773.34;4990546;28;123696;-62
2022/09/27 07:47:49;;;;;;;2.40;1.30;;;;;;;13.40;63.19;99776.75;4991432;28;114592;-62
2022/09/27 07:50:22;;;;;;;2.90;1.23;;;;;;;13.44;63.25;99783.53;4977299;28;113404;-62
2022/09/27 07:52:57;;;;;;;3.13;1.20;;;;;;;13.46;63.27;99779.91;4991053;28;126106;-62
2022/09/27 07:55:33;;;;;;;3.10;1.48;;;;;;;13.47;63.20;99781.59;4992250;28;124363;-62
2022/09/27 07:58:10;;;;;;;3.67;1.50;;;;;;;13.48;63.15;99783.31;4991754;28;113546;-62
2022/09/27 08:00:39;;;;;;;3.50;1.65;;;;;;;13.48;63.14;99780.66;4990678;28;113373;-62
2022/09/27 08:03:14;;;;;;;6.30;2.15;;;;;;;13.50;63.20;99784.03;4990521;28;123644;-64
2022/09/27 08:05:44;;;;;;;5.57;1.88;;;;;;;13.52;63.22;99790.94;4990542;28;124302;-62
2022/09/27 08:08:11;;;;;;;4.60;1.83;;;;;;;13.54;63.27;99785.50;4989706;28;113411;-62
2022/09/27 08:10:42;;;;;;;4.20;1.83;;;;;;;13.56;63.24;99792.44;4980263;28;113239;-62
2022/09/27 08:13:10;;;;;;;3.53;1.80;;;;;;;13.57;63.23;99793.28;4977088;28;123325;-62
2022/09/27 08:15:38;;;;;;;2.95;1.92;;;;;;;13.57;63.13;99795.94;4983153;28;122912;-62
2022/09/27 08:18:10;;;;;;;6.53;2.05;;;;;;;13.56;63.16;99796.88;4971818;28;113380;-62
2022/09/27 08:20:59;;;;;;;4.97;2.00;;;;;;;13.57;63.16;99793.28;4982052;28;114387;-62
2022/09/27 08:23:30;;;;;;;4.30;2.20;;;;;;;13.57;63.20;99798.59;4978228;28;127455;-62
2022/09/27 08:26:15;;;;;;;5.07;2.58;;;;;;;13.57;63.07;99793.28;4992196;28;124595;-62
2022/09/27 08:28:55;;;;;;;3.95;2.33;;;;;;;13.58;63.23;99800.28;4963203;28;113559;-62
2022/09/27 08:31:25;;;;;;;3.45;2.47;;;;;;;13.63;63.41;99798.13;4991164;28;114138;-62
2022/09/27 08:33:55;;;;;;;2.97;2.38;;;;;;;13.66;63.37;99805.88;4990732;28;124183;-62
2022/09/27 08:36:23;;;;;;;5.05;2.70;;;;;;;13.72;63.44;99797.44;4988777;28;124052;-62
2022/09/27 08:38:50;;;;;;;3.80;2.47;;;;;;;13.76;63.32;99809.53;4989258;28;114301;-62
2022/09/27 08:41:39;;;;;;;5.45;2.70;;;;;;;13.80;63.39;99811.00;4990677;28;113486;-62
2022/09/27 08:44:06;;;;;;;;;;;;;;;13.82;63.34;99809.09;4989342;28;124204;-62
2022/09/27 08:46:57;;;;;;;5.60;2.63;;;;;;;13.87;63.14;99805.25;4990725;28;123069;-62
2022/09/27 08:49:48;;;;;;;4.78;2.83;;;;;;;13.90;63.13;99810.31;4990721;28;114117;-62
2022/09/27 08:52:22;;;;;;;4.97;2.42;;;;;;;13.92;63.26;99809.25;4990665;28;113084;-62
2022/09/27 08:54:50;;;;;;;6.15;2.80;;;;;;;13.96;63.19;99815.19;4973672;28;123357;-62
2022/09/27 08:57:19;;;;;;;4.78;2.80;;;;;;;13.99;63.06;99810.50;4988012;28;124722;-62
2022/09/27 08:59:52;;;;;;;4.38;2.97;;;;;;;14.04;63.15;99812.78;4986879;28;113420;-62
2022/09/27 09:02:23;;;;;;;5.00;3.10;;;;;;;14.07;63.06;99815.22;4991343;28;114305;-62
2022/09/27 09:04:59;;;;;;;4.28;2.90;;;;;;;14.10;63.14;99822.13;4971433;28;123634;-62
2022/09/27 09:07:42;;;;;;;7.88;3.55;;;;;;;14.12;63.02;99818.38;4980738;28;122952;-62
2022/09/27 09:13:52;;;;;;;5.45;3.60;;;;;;;14.13;62.65;99822.75;4990717;28;113194;-62
2022/09/27 09:16:30;;;;;;;8.75;3.70;;;;;;;14.12;62.90;99821.03;4989811;28;123025;-62
2022/09/27 09:19:13;;;;;;;6.70;3.92;;;;;;;14.14;62.82;99828.91;4974223;28;123355;-62
2022/09/27 09:22:29;;;;;;;7.13;4.20;;;;;;;14.16;62.79;99821.66;4989837;28;114070;-62
2022/09/27 09:25:27;;;;;;;7.32;4.43;;;;;;;14.18;62.75;99823.25;4988890;28;113868;-62
2022/09/27 09:28:01;;;;;;;5.20;4.70;;;;;;;14.21;62.84;99820.34;4985396;28;124749;-62
2022/09/27 09:30:45;;;;;;;7.55;4.90;;;;;;;14.21;62.64;99825.66;4986702;28;126004;-62
2022/09/27 09:33:30;;;;;;;8.32;5.18;;;;;;;14.21;62.57;99833.66;4984243;28;114647;-62
2022/09/27 09:36:07;;;;;;;;;;;;;;;14.19;62.83;99827.59;4986018;28;113414;-62
2022/09/27 09:38:43;;;;;;;6.38;5.28;;;;;;;14.21;62.62;99828.31;4988301;28;124359;-62
2022/09/27 09:41:21;;;;;;;9.02;5.70;;;;;;;14.23;62.84;99833.53;4973901;28;123150;-61
2022/09/27 09:44:04;;;;;;;7.60;6.03;;;;;;;14.23;62.84;99827.38;4986733;28;113985;-62
2022/09/27 09:46:40;;;;;;;10.55;6.20;;;;;;;14.23;62.56;99824.72;4988877;28;113414;-62
2022/09/27 09:49:20;;;;;;;10.02;6.38;;;;;;;14.21;62.75;99823.00;4987052;28;124422;-62
2022/09/27 09:51:58;;;;;;;8.10;6.63;;;;;;;14.23;62.78;99822.88;4990030;28;123318;-62
2022/09/27 09:54:36;;;;;;;8.63;6.38;;;;;;;14.25;62.76;99825.44;4992951;28;117086;-60
2022/09/27 09:57:16;;;;;;;7.82;6.65;;;;;;;14.25;62.94;99825.44;4986856;28;113203;-61
2022/09/27 09:59:46;;;;;;;8.77;6.13;;;;;;;14.27;62.85;99828.81;4983305;28;123142;-61
2022/09/27 10:02:31;;;;;;;8.50;6.28;;;;;;;14.29;62.86;99818.91;4985840;28;124121;-61
2022/09/27 10:05:06;;;;;;;11.70;6.40;;;;;;;14.30;62.82;99820.63;4989092;28;113334;-61
2022/09/27 10:07:38;;;;;;;9.20;6.32;;;;;;;14.31;62.93;99824.94;4989563;28;113038;-61
2022/09/27 10:10:07;;;;;;;9.77;6.57;;;;;;;14.32;62.90;99816.00;4966936;28;123047;-61
2022/09/27 10:12:57;;;;;;;7.93;5.97;;;;;;;14.33;62.75;99817.69;4990148;28;124988;-61
2022/09/27 10:15:30;;;;;;;8.98;6.70;;;;;;;14.36;63.06;99822.78;4977886;28;114384;-61
2022/09/27 10:17:58;;;;;;;8.18;5.93;;;;;;;14.41;63.00;99820.63;4983835;28;114041;-61
2022/09/27 10:20:42;;;;;;;8.32;6.30;;;;;;;14.43;62.94;99813.38;4988787;28;125095;-61
2022/09/27 10:23:19;;;;;;;8.10;5.80;;;;;;;14.45;62.97;99818.53;4989698;28;123463;-61
2022/09/27 10:26:07;;;;;;;7.25;5.60;;;;;;;14.45;62.75;99816.75;4992139;28;116382;-61
2022/09/27 10:28:46;;;;;;;9.38;5.70;;;;;;;14.45;62.76;99819.41;5005395;28;114275;-61
2022/09/27 10:31:19;;;;;;;6.15;5.00;;;;;;;14.46;62.76;99813.09;4995936;28;123427;-61
2022/09/27 10:34:00;;;;;;;6.70;3.83;;;;;;;14.46;62.41;99818.44;4988130;28;126660;-61
2022/09/27 10:36:34;;;;;;;5.53;3.90;;;;;;;14.45;62.51;99822.09;4991257;28;117430;-61
2022/09/27 10:39:05;;;;;;;5.80;3.95;;;;;;;14.45;62.52;99830.06;4989773;28;112979;-62
2022/09/27 10:41:43;;;;;;;6.43;4.00;;;;;;;14.47;62.48;99838.78;4991478;28;123215;-62
2022/09/27 10:44:26;;;;;;;5.38;3.60;;;;;;;14.49;62.55;99823.53;4990450;28;126548;-61
2022/09/27 10:47:07;;;;;;;3.42;2.10;;;;;;;14.50;62.23;99822.56;4983091;28;116647;-62
2022/09/27 10:49:46;;;;;;;5.93;2.30;;;;;;;14.48;61.97;99821.81;4969300;28;114382;-62
2022/09/27 10:52:27;;;;;;;4.95;2.10;;;;;;;14.46;62.05;99821.09;4990096;28;124250;-61
2022/09/27 10:54:57;;;;;;;3.17;2.00;;;;;;;14.46;62.17;99818.44;4997434;28;123121;-62
2022/09/27 10:57:27;;;;;;;2.67;1.88;;;;;;;14.45;62.00;99827.41;4983372;28;113850;-61
2022/09/27 11:00:01;;;;;;;4.68;1.73;;;;;;;14.45;61.95;99822.09;4984838;28;113279;-62
2022/09/27 11:02:35;;;;;;;3.50;1.60;;;;;;;14.43;61.98;99824.03;4985841;28;123582;-61
2022/09/27 11:05:22;;;;;;;2.50;1.98;;;;;;;14.46;62.29;99823.75;4988480;28;126581;-61
2022/09/27 11:07:52;;;;;;;5.43;2.38;;;;;;;14.49;62.26;99826.19;4983685;28;114670;-61
2022/09/27 11:10:33;;;;;;;4.13;1.90;;;;;;;14.51;62.12;99821.59;4983392;28;114002;-62
2022/09/27 11:13:11;;;;;;;2.10;1.35;;;;;;;14.53;62.36;99824.97;4990182;28;123110;-61
2022/09/27 11:15:46;;;;;;;;;;;;;;;14.54;62.43;99829.38;4989254;28;122822;-61
2022/09/27 11:18:33;;;;;;;4.03;1.52;;;;;;;14.56;62.19;99823.88;4991237;28;113827;-61
2022/09/27 11:21:21;;;;;;;2.05;1.15;;;;;;;14.57;62.21;99829.13;4987673;28;113566;-61
2022/09/27 11:23:48;;;;;;;1.92;0.98;;;;;;;14.59;62.15;99829.84;4989092;28;124163;-61
2022/09/27 11:26:35;;;;;;;1.92;1.10;;;;;;;14.61;61.83;99824.41;4988291;28;122782;-61
2022/09/27 11:29:06;;;;;;;1.63;0.90;;;;;;;14.60;61.78;99836.91;4992682;28;113376;-61
2022/09/27 11:32:12;;;;;;;2.42;1.00;;;;;;;14.60;61.64;99836.06;4982517;28;114677;-62
2022/09/27 11:35:03;;;;;;;1.25;0.80;;;;;;;14.58;61.53;99830.84;4990992;28;127102;-62
2022/09/27 11:37:33;;;;;;;2.78;1.08;;;;;;;14.57;61.38;99831.81;4949162;28;123050;-61
2022/09/27 11:40:04;;;;;;;2.53;0.88;;;;;;;14.59;61.54;99837.84;5005531;28;114188;-62
2022/09/27 11:42:48;;;;;;;2.10;0.70;;;;;;;14.58;61.46;99838.84;4988489;28;113441;-61
2022/09/27 11:45:36;;;;;;;2.45;0.70;;;;;;;14.57;61.27;99837.13;4989260;28;123330;-62
2022/09/27 11:49:01;;;;;;;1.75;0.80;;;;;;;14.54;61.15;99842.69;4975981;28;123317;-62
2022/09/27 11:51:50;;;;;;;1.95;0.80;;;;;;;14.52;61.14;99833.97;4991030;28;113423;-62
2022/09/27 11:54:52;;;;;;;2.70;0.60;;;;;;;14.46;61.42;99837.09;4987418;28;113174;-62
2022/09/27 11:57:30;;;;;;;2.63;0.73;;;;;;;14.47;61.58;99845.94;4984703;28;123606;-62
2022/09/27 12:00:00;;;;;;;2.50;0.95;;;;;;;14.51;61.48;99837.59;4961263;28;123150;-62
2022/09/27 12:02:52;;;;;;;2.00;0.70;;;;;;;14.54;61.27;99845.34;4990461;28;115744;-61
2022/09/27 12:05:30;;;;;;;2.97;0.70;;;;;;;14.54;61.22;99844.47;4997012;28;114650;-61
2022/09/27 12:08:30;;;;;;;2.28;0.70;;;;;;;14.55;61.22;99833.72;5004434;28;126610;-61
2022/09/27 12:11:11;;;;;;;2.03;0.80;;;;;;;14.56;61.19;99840.75;4988757;28;124288;-61
2022/09/27 12:13:42;;;;;;;4.30;0.93;;;;;;;14.56;61.24;99830.09;4989812;28;113795;-61
2022/09/27 12:16:14;;;;;;;2.17;0.90;;;;;;;14.59;61.25;99829.84;4987392;28;113173;-61
2022/09/27 12:18:43;;;;;;;3.42;0.95;;;;;;;14.66;61.33;99824.06;4987026;28;123169;-61
2022/09/27 12:21:37;;;;;;;1.55;0.82;;;;;;;14.72;61.42;99824.41;4991687;28;124424;-61